Time;durP1;ratioP1;P1;durP2;ratioP2;P2;SDS_P1;SDS_P2;PMS_P1;PMS_P2;Temp;Humidity;BMP_temperature;BMP_pressure;BME280_temperature;BME280_humidity;BME280_pressure;Samples;Min_cycle;Max_cycle;Signal;HPM_P1;HPM_P2
2022/05/01 00:00:00;;;;;;;11.07;8.15;;;;;;;;;;5012775;28;20054;-76
2022/05/01 00:02:30;;;;;;;10.98;9.98;;;;;;;;;;5012304;28;20046;-76
2022/05/01 00:04:59;;;;;;;10.75;9.85;;;;;;;;;;5012556;28;20085;-76
2022/05/01 00:07:27;;;;;;;12.52;11.38;;;;;;;;;;5012661;28;20624;-77
2022/05/01 00:09:56;;;;;;;12.43;11.32;;;;;;;;;;5012724;28;20060;-76
2022/05/01 00:12:24;;;;;;;11.63;10.27;;;;;;;;;;5012545;28;20468;-76
2022/05/01 00:14:52;;;;;;;12.98;9.93;;;;;;;;;;5012620;28;20053;-77
2022/05/01 00:17:21;;;;;;;11.30;10.20;;;;;;;;;;5012582;28;20093;-76
2022/05/01 00:19:50;;;;;;;12.65;10.20;;;;;;;;;;5012757;28;20522;-76
2022/05/01 00:22:18;;;;;;;11.63;10.07;;;;;;;;;;5012275;28;20437;-76
2022/05/01 00:24:47;;;;;;;12.32;11.18;;;;;;;;;;5012888;28;20050;-76
2022/05/01 00:27:15;;;;;;;11.07;10.02;;;;;;;;;;5002760;28;20058;-76
2022/05/01 00:29:43;;;;;;;10.82;9.20;;;;;;;;;;5061275;28;20086;-76
2022/05/01 00:32:14;;;;;;;14.75;10.75;;;;;;;;;;5059607;28;20084;-76
2022/05/01 00:37:28;;;;;;;10.13;8.98;;;;;;;;;;5006250;28;20160;-76
2022/05/01 00:39:58;;;;;;;12.48;9.48;;;;;;;;;;5006467;28;20054;-76
2022/05/01 00:42:26;;;;;;;14.73;10.38;;;;;;;;;;5012342;28;20049;-76
2022/05/01 00:44:54;;;;;;;12.65;10.48;;;;;;;;;;5011648;28;20050;-76
2022/05/01 00:47:23;;;;;;;13.60;10.40;;;;;;;;;;5012332;28;20065;-75
2022/05/01 00:49:53;;;;;;;12.52;10.13;;;;;;;;;;5011985;28;20054;-76
2022/05/01 00:52:23;;;;;;;11.18;10.07;;;;;;;;;;5012387;28;20116;-74
2022/05/01 00:54:51;;;;;;;12.60;11.25;;;;;;;;;;5012006;28;20046;-73
2022/05/01 00:57:20;;;;;;;15.80;10.50;;;;;;;;;;5078929;28;20502;-73
2022/05/01 00:59:50;;;;;;;21.92;10.55;;;;;;;;;;5078570;28;20061;-73
2022/05/01 01:02:18;;;;;;;12.65;9.70;;;;;;;;;;5078642;28;20046;-73
2022/05/01 01:04:46;;;;;;;11.77;9.55;;;;;;;;;;5012091;28;20049;-73
2022/05/01 01:07:16;;;;;;;10.13;9.13;;;;;;;;;;5011561;28;20054;-72
2022/05/01 01:09:44;;;;;;;9.55;8.38;;;;;;;;;;5012023;28;20050;-73
2022/05/01 01:12:54;;;;;;;9.90;8.95;;;;;;;;;;5011292;28;20053;-73
2022/05/01 01:15:28;;;;;;;11.00;9.38;;;;;;;;;;5011848;28;20054;-73
2022/05/01 01:17:57;;;;;;;15.02;9.00;;;;;;;;;;5011190;28;20504;-73
2022/05/01 01:20:29;;;;;;;10.27;9.25;;;;;;;;;;5011975;28;20061;-73
2022/05/01 01:22:59;;;;;;;10.30;9.23;;;;;;;;;;5011520;28;20099;-73
2022/05/01 01:25:29;;;;;;;9.52;8.15;;;;;;;;;;5011649;28;20050;-73
2022/05/01 01:28:03;;;;;;;11.30;9.48;;;;;;;;;;5011564;28;20042;-73
2022/05/01 01:33:28;;;;;;;14.02;8.55;;;;;;;;;;5010877;28;20045;-73
2022/05/01 01:36:03;;;;;;;9.40;8.15;;;;;;;;;;5015522;28;20515;-73
2022/05/01 01:38:31;;;;;;;10.18;7.63;;;;;;;;;;5011283;28;20053;-73
2022/05/01 01:40:59;;;;;;;10.40;8.55;;;;;;;;;;5011082;28;20050;-73
2022/05/01 01:43:29;;;;;;;12.68;8.50;;;;;;;;;;5077646;28;20042;-73
2022/05/01 01:45:58;;;;;;;9.68;8.68;;;;;;;;;;5010534;28;20462;-78
2022/05/01 01:48:27;;;;;;;10.10;7.85;;;;;;;;;;5010882;28;20045;-78
2022/05/01 01:51:00;;;;;;;11.85;8.90;;;;;;;;;;5010872;28;20133;-78
2022/05/01 01:53:29;;;;;;;11.80;8.27;;;;;;;;;;5011673;28;20152;-78
2022/05/01 01:55:59;;;;;;;11.15;8.82;;;;;;;;;;5011057;28;20042;-79
2022/05/01 01:58:29;;;;;;;9.73;7.57;;;;;;;;;;5011223;28;20079;-78
2022/05/01 02:00:59;;;;;;;12.80;7.55;;;;;;;;;;5004933;28;20050;-78
2022/05/01 02:03:27;;;;;;;9.93;8.05;;;;;;;;;;5011386;28;20416;-78
2022/05/01 02:05:55;;;;;;;13.00;9.13;;;;;;;;;;5011244;28;20045;-78
2022/05/01 02:08:23;;;;;;;8.75;7.95;;;;;;;;;;5011009;28;20045;-78
2022/05/01 02:10:51;;;;;;;13.15;8.30;;;;;;;;;;5011099;28;20042;-78
2022/05/01 02:13:19;;;;;;;16.42;8.27;;;;;;;;;;4992246;28;20070;-78
2022/05/01 02:15:47;;;;;;;9.73;7.45;;;;;;;;;;5059027;28;20434;-76
2022/05/01 02:18:17;;;;;;;7.68;6.88;;;;;;;;;;4991543;28;20096;-76
2022/05/01 02:23:33;;;;;;;11.32;7.80;;;;;;;;;;4991929;28;20488;-78
2022/05/01 02:26:02;;;;;;;9.05;8.15;;;;;;;;;;4992216;28;20054;-78
2022/05/01 02:28:31;;;;;;;10.68;8.48;;;;;;;;;;5002742;28;20107;-78
2022/05/01 02:30:59;;;;;;;10.35;9.35;;;;;;;;;;5010091;28;20056;-78
2022/05/01 02:33:29;;;;;;;11.27;9.40;;;;;;;;;;5011435;28;20132;-78
2022/05/01 02:35:58;;;;;;;12.40;8.82;;;;;;;;;;5005457;28;20481;-78
2022/05/01 02:38:27;;;;;;;10.63;9.52;;;;;;;;;;5009290;28;20057;-78
2022/05/01 02:40:55;;;;;;;12.38;8.65;;;;;;;;;;5010507;28;20042;-78
2022/05/01 02:43:27;;;;;;;10.25;9.25;;;;;;;;;;5010782;28;20047;-78
2022/05/01 02:45:56;;;;;;;11.95;8.75;;;;;;;;;;5010272;28;20064;-78
2022/05/01 02:48:24;;;;;;;29.30;12.13;;;;;;;;;;5010549;28;20058;-77
2022/05/01 02:50:52;;;;;;;11.05;10.13;;;;;;;;;;5010581;28;20052;-78
2022/05/01 02:53:20;;;;;;;11.25;10.32;;;;;;;;;;5010506;28;20420;-78
2022/05/01 02:55:49;;;;;;;11.25;10.15;;;;;;;;;;5004616;28;20070;-78
2022/05/01 02:58:17;;;;;;;11.30;9.82;;;;;;;;;;5003865;28;20066;-78
2022/05/01 03:00:46;;;;;;;11.05;8.95;;;;;;;;;;5008492;28;20067;-78
2022/05/01 03:03:14;;;;;;;11.02;10.02;;;;;;;;;;5007544;28;20042;-77
2022/05/01 03:05:42;;;;;;;11.63;10.15;;;;;;;;;;5013910;28;20056;-76
2022/05/01 03:08:12;;;;;;;11.40;10.07;;;;;;;;;;5013069;28;20070;-77
2022/05/01 03:10:43;;;;;;;10.38;9.48;;;;;;;;;;5014956;28;20106;-76
2022/05/01 03:13:11;;;;;;;11.43;10.27;;;;;;;;;;5013748;28;20050;-77
2022/05/01 03:15:39;;;;;;;11.25;10.25;;;;;;;;;;5012773;28;20052;-76
2022/05/01 03:23:41;;;;;;;13.00;10.60;;;;;;;;;;5013951;28;20049;-77
2022/05/01 03:26:09;;;;;;;10.90;9.90;;;;;;;;;;5013802;28;20138;-77
2022/05/01 03:28:39;;;;;;;10.35;9.23;;;;;;;;;;5013533;28;20099;-78
2022/05/01 03:31:09;;;;;;;10.05;9.05;;;;;;;;;;5006543;28;20467;-78
2022/05/01 03:33:39;;;;;;;9.70;8.43;;;;;;;;;;5059454;28;20050;-78
2022/05/01 03:36:08;;;;;;;13.77;8.68;;;;;;;;;;4994551;28;20074;-78
2022/05/01 03:38:36;;;;;;;10.45;9.43;;;;;;;;;;5002543;28;20050;-78
2022/05/01 03:41:10;;;;;;;9.80;8.70;;;;;;;;;;5013066;28;20081;-81
2022/05/01 03:43:39;;;;;;;14.93;8.52;;;;;;;;;;5012497;28;20059;-81
2022/05/01 03:46:07;;;;;;;11.48;8.80;;;;;;;;;;5013505;28;20055;-76
2022/05/01 03:48:35;;;;;;;10.15;8.98;;;;;;;;;;5013446;28;20054;-79
2022/05/01 03:51:04;;;;;;;9.60;8.57;;;;;;;;;;5013390;28;20150;-78
2022/05/01 03:53:32;;;;;;;12.35;9.02;;;;;;;;;;5012924;28;20132;-79
2022/05/01 03:56:00;;;;;;;13.48;10.15;;;;;;;;;;5012715;28;20061;-79
2022/05/01 03:58:29;;;;;;;10.32;9.43;;;;;;;;;;5012802;28;20049;-78
2022/05/01 04:00:58;;;;;;;10.90;9.82;;;;;;;;;;5013671;28;20052;-78
2022/05/01 04:03:28;;;;;;;10.98;9.95;;;;;;;;;;5012752;28;20042;-78
2022/05/01 04:05:57;;;;;;;15.07;10.30;;;;;;;;;;5013264;28;20069;-79
2022/05/01 04:08:25;;;;;;;11.25;9.48;;;;;;;;;;5013009;28;20096;-78
2022/05/01 04:10:53;;;;;;;13.27;11.70;;;;;;;;;;5012401;28;20054;-79
2022/05/01 04:13:22;;;;;;;13.18;9.45;;;;;;;;;;5013121;28;20103;-79
2022/05/01 04:15:50;;;;;;;10.63;9.73;;;;;;;;;;5012736;28;20052;-79
2022/05/01 04:18:18;;;;;;;12.05;10.23;;;;;;;;;;5012517;28;20078;-74
2022/05/01 04:20:47;;;;;;;11.80;10.70;;;;;;;;;;5012318;28;20496;-75
2022/05/01 04:23:15;;;;;;;12.57;11.25;;;;;;;;;;5012954;28;20046;-71
2022/05/01 04:25:43;;;;;;;11.88;10.68;;;;;;;;;;5012241;28;20053;-72
2022/05/01 04:28:13;;;;;;;11.32;9.90;;;;;;;;;;5012682;28;20054;-72
2022/05/01 04:30:41;;;;;;;12.65;11.43;;;;;;;;;;5011936;28;20147;-72
2022/05/01 04:33:11;;;;;;;13.02;11.73;;;;;;;;;;5012124;28;20054;-72
2022/05/01 04:35:49;;;;;;;13.70;11.23;;;;;;;;;;5012598;28;20126;-73
2022/05/01 04:38:20;;;;;;;13.55;10.60;;;;;;;;;;5012121;28;20440;-72
2022/05/01 04:40:53;;;;;;;13.32;11.02;;;;;;;;;;5012545;28;20057;-78
2022/05/01 04:43:23;;;;;;;10.52;9.32;;;;;;;;;;5012899;28;20070;-78
2022/05/01 04:45:55;;;;;;;13.38;9.98;;;;;;;;;;5012278;28;20062;-78
2022/05/01 04:48:24;;;;;;;14.32;10.60;;;;;;;;;;5011933;28;20046;-78
2022/05/01 04:50:52;;;;;;;14.10;10.30;;;;;;;;;;5012247;28;20050;-78
2022/05/01 04:53:22;;;;;;;10.10;9.20;;;;;;;;;;5012672;28;20046;-79
2022/05/01 04:55:54;;;;;;;11.50;9.88;;;;;;;;;;5012434;28;20054;-78
2022/05/01 04:58:23;;;;;;;10.63;9.63;;;;;;;;;;5012085;28;20053;-79
2022/05/01 05:00:52;;;;;;;12.68;10.30;;;;;;;;;;5011911;28;20157;-79
2022/05/01 05:03:20;;;;;;;12.93;9.80;;;;;;;;;;5000487;28;20242;-80
2022/05/01 05:05:50;;;;;;;11.15;10.02;;;;;;;;;;4992896;28;20451;-72
2022/05/01 05:11:06;;;;;;;13.73;11.00;;;;;;;;;;5011424;28;20050;-73
2022/05/01 05:13:35;;;;;;;14.15;12.10;;;;;;;;;;5011973;28;20054;-73
2022/05/01 05:16:08;;;;;;;14.60;13.07;;;;;;;;;;5011810;28;20045;-73
2022/05/01 05:18:36;;;;;;;16.42;13.40;;;;;;;;;;5011674;28;20129;-73
2022/05/01 05:21:06;;;;;;;15.40;13.65;;;;;;;;;;5011721;28;20087;-73
2022/05/01 05:23:36;;;;;;;14.02;12.63;;;;;;;;;;5014788;28;20062;-82
2022/05/01 05:26:03;;;;;;;13.18;11.88;;;;;;;;;;5017763;28;20085;-80
2022/05/01 05:28:32;;;;;;;12.27;10.57;;;;;;;;;;5013519;28;20041;-79
2022/05/01 05:31:00;;;;;;;12.20;11.02;;;;;;;;;;5016358;28;20887;-80
2022/05/01 05:33:29;;;;;;;13.02;9.30;;;;;;;;;;5014566;28;20190;-80
2022/05/01 05:35:57;;;;;;;9.30;8.32;;;;;;;;;;5010231;28;20459;-79
2022/05/01 05:38:25;;;;;;;8.73;7.85;;;;;;;;;;5013934;28;20056;-83
2022/05/01 05:40:53;;;;;;;10.32;7.47;;;;;;;;;;5016174;28;20539;-75
2022/05/01 05:43:20;;;;;;;9.32;7.18;;;;;;;;;;5014790;28;20120;-74
2022/05/01 05:45:50;;;;;;;8.60;7.75;;;;;;;;;;5009990;28;20065;-74
2022/05/01 05:48:18;;;;;;;11.52;8.45;;;;;;;;;;5013771;28;20137;-76
2022/05/01 05:50:47;;;;;;;10.90;9.32;;;;;;;;;;5019141;28;20041;-76
2022/05/01 05:53:15;;;;;;;12.05;8.52;;;;;;;;;;5016022;28;20069;-73
2022/05/01 05:55:45;;;;;;;11.38;9.18;;;;;;;;;;5015256;28;20050;-75
2022/05/01 05:58:14;;;;;;;12.77;8.93;;;;;;;;;;5012069;28;20515;-75
2022/05/01 06:00:44;;;;;;;11.52;8.80;;;;;;;;;;5015091;28;20488;-75
2022/05/01 06:03:13;;;;;;;13.27;9.43;;;;;;;;;;5014147;28;20995;-73
2022/05/01 06:05:41;;;;;;;11.40;9.57;;;;;;;;;;5013513;28;20058;-74
2022/05/01 06:08:09;;;;;;;11.05;9.88;;;;;;;;;;5013052;28;20412;-73
2022/05/01 06:10:38;;;;;;;12.45;11.23;;;;;;;;;;5010568;28;20050;-70
2022/05/01 06:13:07;;;;;;;13.68;10.15;;;;;;;;;;5011975;28;20050;-66
2022/05/01 06:15:39;;;;;;;10.57;9.48;;;;;;;;;;5013076;28;20045;-72
2022/05/01 06:18:10;;;;;;;16.73;9.75;;;;;;;;;;5013477;28;20053;-73
2022/05/01 06:20:39;;;;;;;10.80;9.02;;;;;;;;;;5013916;28;20129;-72
2022/05/01 06:23:07;;;;;;;13.40;9.35;;;;;;;;;;5011651;28;20061;-72
2022/05/01 06:25:38;;;;;;;10.32;9.38;;;;;;;;;;5012786;28;20050;-71
2022/05/01 06:28:07;;;;;;;13.68;9.98;;;;;;;;;;5016093;28;20050;-70
2022/05/01 06:30:37;;;;;;;10.73;9.43;;;;;;;;;;5078348;28;20439;-72
2022/05/01 06:33:09;;;;;;;8.77;7.88;;;;;;;;;;5011908;28;20057;-69
2022/05/01 06:35:38;;;;;;;10.60;9.55;;;;;;;;;;5006779;28;20070;-69
2022/05/01 06:38:08;;;;;;;11.40;8.45;;;;;;;;;;5006035;28;20067;-68
2022/05/01 06:40:38;;;;;;;9.18;7.60;;;;;;;;;;5012099;28;20042;-70
2022/05/01 06:43:10;;;;;;;9.95;8.85;;;;;;;;;;5014018;28;20049;-69
2022/05/01 06:45:42;;;;;;;12.52;8.40;;;;;;;;;;5014812;28;20058;-71
2022/05/01 06:48:15;;;;;;;9.05;7.70;;;;;;;;;;5008357;28;20074;-70
2022/05/01 06:50:44;;;;;;;9.32;7.50;;;;;;;;;;5011936;28;20050;-71
2022/05/01 06:53:12;;;;;;;7.85;6.78;;;;;;;;;;5011688;28;20089;-70
2022/05/01 06:55:41;;;;;;;8.32;7.15;;;;;;;;;;5011685;28;20057;-71
2022/05/01 06:58:17;;;;;;;7.70;6.70;;;;;;;;;;5014338;28;20042;-73
2022/05/01 07:00:45;;;;;;;8.80;5.43;;;;;;;;;;5012971;28;20053;-70
2022/05/01 07:03:13;;;;;;;6.97;6.28;;;;;;;;;;5009257;28;20046;-70
2022/05/01 07:05:41;;;;;;;6.75;5.65;;;;;;;;;;5012958;28;20045;-70
2022/05/01 07:08:10;;;;;;;7.95;6.10;;;;;;;;;;5009880;28;20450;-70
2022/05/01 07:10:38;;;;;;;6.65;5.43;;;;;;;;;;5009774;28;20508;-70
2022/05/01 07:13:09;;;;;;;10.93;6.10;;;;;;;;;;5009539;28;20057;-72
2022/05/01 07:15:38;;;;;;;6.80;4.57;;;;;;;;;;5008434;28;20060;-70
2022/05/01 07:18:07;;;;;;;7.00;4.45;;;;;;;;;;5005288;28;20049;-70
2022/05/01 07:20:36;;;;;;;6.45;4.20;;;;;;;;;;5074521;28;20046;-70
2022/05/01 07:23:06;;;;;;;7.47;5.20;;;;;;;;;;5008276;28;20061;-70
2022/05/01 07:25:35;;;;;;;4.65;4.25;;;;;;;;;;5007915;28;20062;-75
2022/05/01 07:28:05;;;;;;;11.90;5.03;;;;;;;;;;5002977;28;20053;-73
2022/05/01 07:30:34;;;;;;;5.00;4.43;;;;;;;;;;5005996;28;20056;-75
2022/05/01 07:33:04;;;;;;;6.40;4.38;;;;;;;;;;5004917;28;20050;-69
2022/05/01 07:35:32;;;;;;;4.85;4.15;;;;;;;;;;5003781;28;20567;-67
2022/05/01 07:38:02;;;;;;;4.50;4.10;;;;;;;;;;5004307;28;20058;-70
2022/05/01 07:40:30;;;;;;;4.53;4.18;;;;;;;;;;5005648;28;20038;-70
2022/05/01 07:42:58;;;;;;;4.97;4.38;;;;;;;;;;5005404;28;20058;-69
2022/05/01 07:45:26;;;;;;;6.40;4.00;;;;;;;;;;5005899;28;20054;-68
2022/05/01 07:47:58;;;;;;;5.22;4.72;;;;;;;;;;5011056;28;20048;-65
2022/05/01 07:50:27;;;;;;;4.45;3.70;;;;;;;;;;5007881;28;20053;-68
2022/05/01 07:52:55;;;;;;;4.75;3.83;;;;;;;;;;5007309;28;20050;-68
2022/05/01 07:55:23;;;;;;;5.00;4.28;;;;;;;;;;5012557;28;20056;-68
2022/05/01 07:57:52;;;;;;;3.65;3.22;;;;;;;;;;5012392;28;20053;-68
2022/05/01 08:00:20;;;;;;;5.85;3.95;;;;;;;;;;5012614;28;20068;-69
2022/05/01 08:05:35;;;;;;;6.30;4.28;;;;;;;;;;5012680;28;20150;-68
2022/05/01 08:08:04;;;;;;;6.45;3.65;;;;;;;;;;5012891;28;20073;-68
2022/05/01 08:10:33;;;;;;;4.60;3.78;;;;;;;;;;5011032;28;20132;-68
2022/05/01 08:13:02;;;;;;;5.10;3.70;;;;;;;;;;5077651;28;20393;-69
2022/05/01 08:15:31;;;;;;;4.25;3.40;;;;;;;;;;4999771;28;20124;-68
2022/05/01 08:21:05;;;;;;;7.30;3.83;;;;;;;;;;5011987;28;20046;-68
2022/05/01 08:23:53;;;;;;;6.70;3.63;;;;;;;;;;5068630;28;20053;-69
2022/05/01 08:26:23;;;;;;;4.43;3.90;;;;;;;;;;5014899;28;20061;-68
2022/05/01 08:28:53;;;;;;;4.80;4.20;;;;;;;;;;5008909;28;20049;-69
2022/05/01 08:31:21;;;;;;;4.50;3.53;;;;;;;;;;5011849;28;20045;-67
2022/05/01 08:33:49;;;;;;;4.70;4.20;;;;;;;;;;5009700;28;20038;-69
2022/05/01 08:36:18;;;;;;;6.40;4.22;;;;;;;;;;5012040;28;20125;-68
2022/05/01 08:38:45;;;;;;;4.10;3.40;;;;;;;;;;5011793;28;20421;-67
2022/05/01 08:41:13;;;;;;;6.20;4.15;;;;;;;;;;5012269;28;20049;-68
2022/05/01 08:43:41;;;;;;;5.68;4.18;;;;;;;;;;5012042;28;20121;-67
2022/05/01 08:46:28;;;;;;;5.38;4.50;;;;;;;;;;5009326;28;20085;-66
2022/05/01 08:49:07;;;;;;;3.75;3.42;;;;;;;;;;5011452;28;20500;-65
2022/05/01 08:51:37;;;;;;;4.40;3.90;;;;;;;;;;5010991;28;20046;-66
2022/05/01 08:54:07;;;;;;;8.57;5.57;;;;;;;;;;5011120;28;20110;-66
2022/05/01 08:56:37;;;;;;;5.28;4.65;;;;;;;;;;5011010;28;20053;-66
2022/05/01 08:59:11;;;;;;;5.65;4.72;;;;;;;;;;5011471;28;20065;-64
2022/05/01 09:01:41;;;;;;;5.47;4.82;;;;;;;;;;5011814;28;20529;-65
2022/05/01 09:04:14;;;;;;;5.10;4.53;;;;;;;;;;5006637;28;20100;-65
2022/05/01 09:06:44;;;;;;;5.80;4.97;;;;;;;;;;5011719;28;20118;-65
2022/05/01 09:09:22;;;;;;;5.95;4.40;;;;;;;;;;5011631;28;20056;-67
2022/05/01 09:14:38;;;;;;;5.82;4.80;;;;;;;;;;5009878;28;20104;-67
2022/05/01 09:17:23;;;;;;;5.15;4.65;;;;;;;;;;5011019;28;20057;-67
2022/05/01 09:19:54;;;;;;;5.68;4.97;;;;;;;;;;5010042;28;20042;-67
2022/05/01 09:22:22;;;;;;;9.88;4.85;;;;;;;;;;5009792;28;20049;-67
2022/05/01 09:24:53;;;;;;;5.32;4.82;;;;;;;;;;5034968;28;20105;-68
2022/05/01 09:27:32;;;;;;;5.88;4.45;;;;;;;;;;5004961;28;20066;-65
2022/05/01 09:30:31;;;;;;;7.13;5.40;;;;;;;;;;5011022;28;20171;-66
2022/05/01 09:33:00;;;;;;;9.25;5.88;;;;;;;;;;5010749;28;20041;-67
2022/05/01 09:35:34;;;;;;;6.32;4.70;;;;;;;;;;5011128;28;20073;-68
2022/05/01 09:38:24;;;;;;;5.93;4.47;;;;;;;;;;5009656;28;20078;-67
2022/05/01 09:40:58;;;;;;;5.03;4.00;;;;;;;;;;5009194;28;20078;-68
2022/05/01 09:43:38;;;;;;;5.80;4.75;;;;;;;;;;5008178;28;20046;-68
2022/05/01 09:46:22;;;;;;;4.63;4.22;;;;;;;;;;5009244;28;20397;-68
2022/05/01 09:48:58;;;;;;;6.20;4.50;;;;;;;;;;5004293;28;20047;-68
2022/05/01 09:51:53;;;;;;;6.93;4.70;;;;;;;;;;4998218;28;20122;-68
2022/05/01 09:54:26;;;;;;;4.32;3.92;;;;;;;;;;5009089;28;20069;-68
2022/05/01 09:57:03;;;;;;;4.65;3.92;;;;;;;;;;4996024;28;20038;-68
2022/05/01 09:59:49;;;;;;;5.53;3.70;;;;;;;;;;5012486;28;20053;-68
2022/05/01 10:02:28;;;;;;;4.65;4.25;;;;;;;;;;4997413;28;20051;-68
2022/05/01 10:05:06;;;;;;;6.18;4.55;;;;;;;;;;5010467;28;20060;-69
2022/05/01 10:07:38;;;;;;;5.57;3.25;;;;;;;;;;5010635;28;20133;-70
2022/05/01 10:10:08;;;;;;;8.02;3.53;;;;;;;;;;5009987;28;20576;-68
2022/05/01 10:12:42;;;;;;;5.60;3.58;;;;;;;;;;5076482;28;20089;-68
2022/05/01 10:15:10;;;;;;;5.40;3.92;;;;;;;;;;5004884;28;20050;-68
2022/05/01 10:17:40;;;;;;;4.53;3.13;;;;;;;;;;5071059;28;20820;-68
2022/05/01 10:20:13;;;;;;;4.28;2.90;;;;;;;;;;5007220;28;20549;-67
2022/05/01 10:22:42;;;;;;;4.22;3.65;;;;;;;;;;5002808;28;20066;-68
2022/05/01 10:25:12;;;;;;;4.18;3.50;;;;;;;;;;5060145;28;20527;-65
2022/05/01 10:27:51;;;;;;;7.65;4.03;;;;;;;;;;5007277;28;20046;-65
2022/05/01 10:33:46;;;;;;;5.10;3.80;;;;;;;;;;5060315;28;20549;-66
2022/05/01 10:36:39;;;;;;;;;;;;;;;;;;5011507;28;20060;-65
2022/05/01 10:39:11;;;;;;;5.53;3.85;;;;;;;;;;5077281;28;19961;-65
2022/05/01 10:41:44;;;;;;;8.57;4.65;;;;;;;;;;5009801;28;20145;-65
2022/05/01 10:44:40;;;;;;;4.40;4.00;;;;;;;;;;5010327;28;20133;-66
2022/05/01 10:47:17;;;;;;;4.47;4.07;;;;;;;;;;5010861;28;20387;-65
2022/05/01 10:49:47;;;;;;;6.00;4.07;;;;;;;;;;5010181;28;20131;-65
2022/05/01 10:52:21;;;;;;;4.40;4.00;;;;;;;;;;4999397;28;20137;-66
2022/05/01 10:55:12;;;;;;;5.53;4.40;;;;;;;;;;5013223;28;20082;-66
2022/05/01 10:57:43;;;;;;;5.28;4.78;;;;;;;;;;5002255;28;20057;-65
2022/05/01 11:00:12;;;;;;;5.53;4.28;;;;;;;;;;5004563;28;20053;-66
2022/05/01 11:03:01;;;;;;;6.47;4.20;;;;;;;;;;5008704;28;20145;-64
2022/05/01 11:05:45;;;;;;;5.63;4.00;;;;;;;;;;5069354;28;20046;-67
2022/05/01 11:08:15;;;;;;;4.00;3.60;;;;;;;;;;5009793;28;20073;-68
2022/05/01 11:10:45;;;;;;;5.10;4.60;;;;;;;;;;5008140;28;20046;-69
2022/05/01 11:13:38;;;;;;;4.00;3.58;;;;;;;;;;5006443;28;20110;-68
2022/05/01 11:16:09;;;;;;;4.75;4.13;;;;;;;;;;5004998;28;20060;-69
2022/05/01 11:18:40;;;;;;;12.43;5.93;;;;;;;;;;5008730;28;20408;-71
2022/05/01 11:21:24;;;;;;;4.25;3.72;;;;;;;;;;5008306;28;20053;-68
2022/05/01 11:23:58;;;;;;;6.40;4.72;;;;;;;;;;5012055;28;20050;-69
2022/05/01 11:26:29;;;;;;;4.18;3.15;;;;;;;;;;5012087;28;20096;-69
2022/05/01 11:29:17;;;;;;;4.13;3.72;;;;;;;;;;5012262;28;20078;-68
2022/05/01 11:32:05;;;;;;;4.72;4.30;;;;;;;;;;5012888;28;20074;-70
2022/05/01 11:34:34;;;;;;;4.20;2.92;;;;;;;;;;5011939;28;20061;-69
2022/05/01 11:37:05;;;;;;;3.70;2.95;;;;;;;;;;5072212;28;20046;-67
2022/05/01 11:39:51;;;;;;;10.57;4.80;;;;;;;;;;5005362;28;20044;-68
2022/05/01 11:42:25;;;;;;;4.80;3.15;;;;;;;;;;5011188;28;20046;-69
2022/05/01 11:44:57;;;;;;;4.07;3.00;;;;;;;;;;5010991;28;20058;-69
2022/05/01 11:47:31;;;;;;;5.90;5.30;;;;;;;;;;5012065;28;20054;-70
2022/05/01 11:49:59;;;;;;;5.55;3.55;;;;;;;;;;5011602;28;20095;-70
2022/05/01 11:52:27;;;;;;;4.10;3.03;;;;;;;;;;5012617;28;20381;-70
2022/05/01 11:54:57;;;;;;;6.60;3.63;;;;;;;;;;5012361;28;20069;-70
2022/05/01 12:03:07;;;;;;;4.90;3.22;;;;;;;;;;5013181;28;20079;-70
2022/05/01 12:05:47;;;;;;;5.30;3.30;;;;;;;;;;5012604;28;20141;-71
2022/05/01 12:08:20;;;;;;;5.60;3.08;;;;;;;;;;5012514;28;20085;-71
2022/05/01 12:10:49;;;;;;;;;;;;;;;;;;5012907;28;20050;-71
2022/05/01 12:13:20;;;;;;;3.35;2.80;;;;;;;;;;5011910;28;19929;-72
2022/05/01 12:16:08;;;;;;;3.30;3.00;;;;;;;;;;5012423;28;20074;-71
2022/05/01 12:18:36;;;;;;;3.08;2.72;;;;;;;;;;5012442;28;20111;-71
2022/05/01 12:21:04;;;;;;;6.80;3.22;;;;;;;;;;5079516;28;20048;-72
2022/05/01 12:23:33;;;;;;;6.05;4.63;;;;;;;;;;5012166;28;20049;-72
2022/05/01 12:26:02;;;;;;;5.93;3.13;;;;;;;;;;5012300;28;20105;-71
2022/05/01 12:28:31;;;;;;;3.72;3.13;;;;;;;;;;5079161;28;20133;-71
2022/05/01 12:30:58;;;;;;;4.22;2.72;;;;;;;;;;5012220;28;20065;-72
2022/05/01 12:33:26;;;;;;;4.20;3.25;;;;;;;;;;5011376;28;20054;-71
2022/05/01 12:35:58;;;;;;;3.03;2.45;;;;;;;;;;5012076;28;20496;-71
2022/05/01 12:38:27;;;;;;;5.47;3.33;;;;;;;;;;5006728;28;20538;-71
2022/05/01 12:44:17;;;;;;;5.82;3.30;;;;;;;;;;5011927;28;20057;-72
2022/05/01 12:46:53;;;;;;;3.97;2.88;;;;;;;;;;5011881;28;20054;-72
2022/05/01 12:49:25;;;;;;;3.38;3.08;;;;;;;;;;5012102;28;20065;-72
2022/05/01 12:51:54;;;;;;;7.90;3.13;;;;;;;;;;5012145;28;20050;-74
2022/05/01 12:54:22;;;;;;;5.40;3.13;;;;;;;;;;5067882;28;20042;-69
2022/05/01 12:56:49;;;;;;;8.55;3.35;;;;;;;;;;5076122;28;20409;-72
2022/05/01 12:59:30;;;;;;;5.57;3.30;;;;;;;;;;5079085;28;20046;-72
2022/05/01 13:01:59;;;;;;;3.00;2.53;;;;;;;;;;5017676;28;20062;-72
2022/05/01 13:04:30;;;;;;;6.97;4.57;;;;;;;;;;4993536;28;20053;-72
2022/05/01 13:07:00;;;;;;;5.43;3.00;;;;;;;;;;4993313;28;20065;-72
2022/05/01 13:09:28;;;;;;;4.75;3.33;;;;;;;;;;4992685;28;20050;-72
2022/05/01 13:12:04;;;;;;;3.28;2.90;;;;;;;;;;4993083;28;20053;-72
2022/05/01 13:14:33;;;;;;;7.15;2.70;;;;;;;;;;5006091;28;20057;-70
2022/05/01 13:17:27;;;;;;;7.22;2.75;;;;;;;;;;5011648;28;20424;-72
2022/05/01 13:20:01;;;;;;;3.70;3.13;;;;;;;;;;5010930;28;20497;-75
2022/05/01 13:22:28;;;;;;;3.85;2.92;;;;;;;;;;5011463;28;20045;-78
2022/05/01 13:24:57;;;;;;;3.60;2.60;;;;;;;;;;5077678;28;20055;-76
2022/05/01 13:27:26;;;;;;;2.90;2.70;;;;;;;;;;5011294;28;20069;-75
2022/05/01 13:29:54;;;;;;;2.85;2.65;;;;;;;;;;5011044;28;20050;-75
2022/05/01 13:32:22;;;;;;;3.45;3.13;;;;;;;;;;5011009;28;20057;-76
2022/05/01 13:34:51;;;;;;;3.83;2.40;;;;;;;;;;5011374;28;20057;-75
2022/05/01 13:37:21;;;;;;;3.08;2.83;;;;;;;;;;4992040;28;20060;-75
2022/05/01 13:45:31;;;;;;;2.60;2.40;;;;;;;;;;4998661;28;20050;-75
2022/05/01 13:47:59;;;;;;;4.28;2.45;;;;;;;;;;5004436;28;20049;-75
2022/05/01 13:50:27;;;;;;;4.65;2.38;;;;;;;;;;5011632;28;20045;-75
2022/05/01 13:52:56;;;;;;;3.40;2.45;;;;;;;;;;5004000;28;20038;-76
2022/05/01 13:55:24;;;;;;;4.15;3.05;;;;;;;;;;5008659;28;20049;-69
2022/05/01 13:57:53;;;;;;;3.15;2.88;;;;;;;;;;5011938;28;20046;-69
2022/05/01 14:00:23;;;;;;;3.65;3.25;;;;;;;;;;5010965;28;20046;-69
2022/05/01 14:02:51;;;;;;;6.90;5.75;;;;;;;;;;5010585;28;20058;-72
2022/05/01 14:05:20;;;;;;;7.50;2.80;;;;;;;;;;5010435;28;20106;-71
2022/05/01 14:07:49;;;;;;;2.40;2.20;;;;;;;;;;5010529;28;20137;-70
2022/05/01 14:10:18;;;;;;;4.93;2.35;;;;;;;;;;5001938;28;20108;-70
2022/05/01 14:12:47;;;;;;;2.92;2.63;;;;;;;;;;4992130;28;20050;-70
2022/05/01 14:15:16;;;;;;;5.43;2.10;;;;;;;;;;5057374;28;20035;-71
2022/05/01 14:17:44;;;;;;;2.97;2.67;;;;;;;;;;4991230;28;20065;-70
2022/05/01 14:20:12;;;;;;;31.45;5.55;;;;;;;;;;4989685;28;20039;-71
2022/05/01 14:22:41;;;;;;;6.68;3.42;;;;;;;;;;4995092;28;20050;-69
2022/05/01 14:25:08;;;;;;;8.27;3.30;;;;;;;;;;5010983;28;20049;-70
2022/05/01 14:27:36;;;;;;;8.18;4.60;;;;;;;;;;5076250;28;20073;-71
2022/05/01 14:30:08;;;;;;;11.25;3.80;;;;;;;;;;5010847;28;20073;-71
2022/05/01 14:32:38;;;;;;;13.88;3.85;;;;;;;;;;5010211;28;20065;-69
2022/05/01 14:35:10;;;;;;;4.10;3.28;;;;;;;;;;5080848;28;20054;-69
2022/05/01 14:38:08;;;;;;;8.23;3.95;;;;;;;;;;5012496;28;20051;-69
2022/05/01 14:40:38;;;;;;;5.18;2.92;;;;;;;;;;5015054;28;20064;-67
2022/05/01 14:43:12;;;;;;;3.05;2.85;;;;;;;;;;5010452;28;20081;-68
2022/05/01 14:45:41;;;;;;;5.60;2.97;;;;;;;;;;5008121;28;20085;-69
2022/05/01 14:48:25;;;;;;;3.65;2.97;;;;;;;;;;5081926;28;20046;-68
2022/05/01 14:50:54;;;;;;;7.32;3.00;;;;;;;;;;5013644;28;20058;-66
2022/05/01 14:53:23;;;;;;;4.18;3.05;;;;;;;;;;5072520;28;20501;-68
2022/05/01 14:55:53;;;;;;;4.65;3.60;;;;;;;;;;5093300;28;20130;-69
2022/05/01 15:07:05;;;;;;;4.45;4.05;;;;;;;;;;5061682;28;20049;-70
2022/05/01 15:09:34;;;;;;;5.72;3.47;;;;;;;;;;5010469;28;20050;-67
2022/05/01 15:12:04;;;;;;;8.77;3.50;;;;;;;;;;5076033;28;20126;-68
2022/05/01 15:14:32;;;;;;;4.13;3.60;;;;;;;;;;5011805;28;20060;-68
2022/05/01 15:17:07;;;;;;;4.75;4.28;;;;;;;;;;5013712;28;20057;-67
2022/05/01 15:19:42;;;;;;;6.22;3.92;;;;;;;;;;5012318;28;20100;-70
2022/05/01 15:22:22;;;;;;;4.00;3.60;;;;;;;;;;5069225;28;20049;-69
2022/05/01 15:25:01;;;;;;;5.38;4.85;;;;;;;;;;5012028;28;20053;-69
2022/05/01 15:27:46;;;;;;;4.70;4.15;;;;;;;;;;5076888;28;20133;-69
2022/05/01 15:30:15;;;;;;;5.60;4.30;;;;;;;;;;5016582;28;20085;-68
2022/05/01 15:35:41;;;;;;;4.53;3.97;;;;;;;;;;4997648;28;20569;-68
2022/05/01 15:38:36;;;;;;;4.50;4.10;;;;;;;;;;4990601;28;20382;-68
2022/05/01 15:41:33;;;;;;;4.87;4.03;;;;;;;;;;5008917;28;20062;-68
2022/05/01 15:44:06;;;;;;;4.45;4.05;;;;;;;;;;5014775;28;20050;-68
2022/05/01 15:47:01;;;;;;;5.50;5.05;;;;;;;;;;4997565;28;20501;-67
2022/05/01 15:55:10;;;;;;;5.82;4.10;;;;;;;;;;4997498;28;20454;-68
2022/05/01 15:57:40;;;;;;;5.38;4.88;;;;;;;;;;5006348;28;20060;-68
2022/05/01 16:00:16;;;;;;;8.70;4.95;;;;;;;;;;5009532;28;20042;-66